sensor_id;sensor_type;location;lat;lon;timestamp;P1;P2;P0
84428;PMS7003;74637;52.170;21.034;2024-01-16T00:00:19;0.00;0.00;0.00
84428;PMS7003;74637;52.170;21.034;2024-01-16T00:03:06;1.00;1.00;1.00
84428;PMS7003;74637;52.170;21.034;2024-01-16T00:05:33;0.00;0.00;0.00
84428;PMS7003;74637;52.170;21.034;2024-01-16T00:07:59;0.75;0.00;0.00
84428;PMS7003;74637;52.170;21.034;2024-01-16T00:10:26;0.00;0.00;0.00
84428;PMS7003;74637;52.170;21.034;2024-01-16T00:12:52;2.00;1.00;0.00
84428;PMS7003;74637;52.170;21.034;2024-01-16T00:15:19;0.00;0.00;0.00
84428;PMS7003;74637;52.170;21.034;2024-01-16T00:17:45;2.00;0.00;0.00
84428;PMS7003;74637;52.170;21.034;2024-01-16T00:20:12;3.00;0.00;0.00
84428;PMS7003;74637;52.170;21.034;2024-01-16T00:22:39;1.00;0.50;0.00
84428;PMS7003;74637;52.170;21.034;2024-01-16T00:25:05;1.00;0.00;0.00
84428;PMS7003;74637;52.170;21.034;2024-01-16T00:27:33;1.00;0.00;0.00
84428;PMS7003;74637;52.170;21.034;2024-01-16T00:29:59;1.00;1.00;1.00
84428;PMS7003;74637;52.170;21.034;2024-01-16T00:32:26;1.00;1.00;0.50
84428;PMS7003;74637;52.170;21.034;2024-01-16T00:34:52;1.00;1.00;0.00
84428;PMS7003;74637;52.170;21.034;2024-01-16T00:37:19;0.00;0.00;0.00
84428;PMS7003;74637;52.170;21.034;2024-01-16T00:39:45;0.00;0.00;0.00
84428;PMS7003;74637;52.170;21.034;2024-01-16T00:42:12;0.00;0.00;0.00
84428;PMS7003;74637;52.170;21.034;2024-01-16T00:44:38;0.00;0.00;0.00
84428;PMS7003;74637;52.170;21.034;2024-01-16T00:47:05;1.00;0.00;0.00
84428;PMS7003;74637;52.170;21.034;2024-01-16T00:49:32;1.00;1.00;0.00
84428;PMS7003;74637;52.170;21.034;2024-01-16T00:51:58;1.00;1.00;0.50
84428;PMS7003;74637;52.170;21.034;2024-01-16T00:54:25;0.50;0.00;0.00
84428;PMS7003;74637;52.170;21.034;2024-01-16T00:56:51;0.00;0.00;0.00
84428;PMS7003;74637;52.170;21.034;2024-01-16T00:59:21;2.33;0.00;0.00
84428;PMS7003;74637;52.170;21.034;2024-01-16T01:01:48;3.00;0.00;0.00
84428;PMS7003;74637;52.170;21.034;2024-01-16T01:04:14;0.00;0.00;0.00
84428;PMS7003;74637;52.170;21.034;2024-01-16T01:06:41;0.00;0.00;0.00
84428;PMS7003;74637;52.170;21.034;2024-01-16T01:09:07;2.00;1.00;0.50
84428;PMS7003;74637;52.170;21.034;2024-01-16T01:11:34;0.00;0.00;0.00
84428;PMS7003;74637;52.170;21.034;2024-01-16T01:14:00;0.00;0.00;0.00
84428;PMS7003;74637;52.170;21.034;2024-01-16T01:16:27;0.00;0.00;0.00
84428;PMS7003;74637;52.170;21.034;2024-01-16T01:18:54;0.00;0.00;0.00
84428;PMS7003;74637;52.170;21.034;2024-01-16T01:21:20;2.33;0.00;0.00
84428;PMS7003;74637;52.170;21.034;2024-01-16T01:23:47;0.00;0.00;0.00
84428;PMS7003;74637;52.170;21.034;2024-01-16T01:26:13;1.00;1.00;0.50
84428;PMS7003;74637;52.170;21.034;2024-01-16T01:28:40;3.00;1.00;0.33
84428;PMS7003;74637;52.170;21.034;2024-01-16T01:31:10;1.00;0.00;0.00
84428;PMS7003;74637;52.170;21.034;2024-01-16T01:33:38;1.00;0.00;0.00
84428;PMS7003;74637;52.170;21.034;2024-01-16T01:36:05;3.00;0.00;0.33
84428;PMS7003;74637;52.170;21.034;2024-01-16T01:38:32;0.00;0.00;0.00
84428;PMS7003;74637;52.170;21.034;2024-01-16T01:40:59;1.00;1.00;1.00
84428;PMS7003;74637;52.170;21.034;2024-01-16T01:43:25;1.00;0.00;0.00
84428;PMS7003;74637;52.170;21.034;2024-01-16T01:48:47;0.00;0.00;0.00
84428;PMS7003;74637;52.170;21.034;2024-01-16T01:51:16;0.00;0.00;0.00
84428;PMS7003;74637;52.170;21.034;2024-01-16T01:53:45;3.00;1.00;0.00
84428;PMS7003;74637;52.170;21.034;2024-01-16T01:56:19;0.00;0.00;0.00
84428;PMS7003;74637;52.170;21.034;2024-01-16T01:58:47;1.00;0.00;0.00
84428;PMS7003;74637;52.170;21.034;2024-01-16T02:01:19;0.00;0.00;0.00
84428;PMS7003;74637;52.170;21.034;2024-01-16T02:03:47;0.00;0.00;0.00
84428;PMS7003;74637;52.170;21.034;2024-01-16T02:06:16;0.00;0.00;0.00
84428;PMS7003;74637;52.170;21.034;2024-01-16T02:08:43;0.00;0.00;0.00
84428;PMS7003;74637;52.170;21.034;2024-01-16T02:11:11;0.00;0.00;0.00
84428;PMS7003;74637;52.170;21.034;2024-01-16T02:13:38;0.00;0.00;0.00
84428;PMS7003;74637;52.170;21.034;2024-01-16T02:16:05;0.00;0.00;0.00
84428;PMS7003;74637;52.170;21.034;2024-01-16T02:18:32;3.00;0.00;0.00
84428;PMS7003;74637;52.170;21.034;2024-01-16T02:21:02;1.00;0.33;0.00
84428;PMS7003;74637;52.170;21.034;2024-01-16T02:23:32;3.50;0.50;0.50
84428;PMS7003;74637;52.170;21.034;2024-01-16T02:25:59;0.00;0.00;0.00
84428;PMS7003;74637;52.170;21.034;2024-01-16T02:28:28;0.00;0.00;0.00
84428;PMS7003;74637;52.170;21.034;2024-01-16T02:30:55;1.00;1.00;0.00
84428;PMS7003;74637;52.170;21.034;2024-01-16T02:33:22;1.00;1.00;0.00
84428;PMS7003;74637;52.170;21.034;2024-01-16T02:35:49;0.00;0.00;0.00
84428;PMS7003;74637;52.170;21.034;2024-01-16T02:38:16;3.00;0.00;0.00
84428;PMS7003;74637;52.170;21.034;2024-01-16T02:40:42;1.50;0.00;0.00
84428;PMS7003;74637;52.170;21.034;2024-01-16T02:43:09;0.00;0.00;0.00
84428;PMS7003;74637;52.170;21.034;2024-01-16T02:45:35;1.00;1.00;0.00
84428;PMS7003;74637;52.170;21.034;2024-01-16T02:48:02;0.67;0.67;0.00
84428;PMS7003;74637;52.170;21.034;2024-01-16T02:50:29;4.00;0.00;0.00
84428;PMS7003;74637;52.170;21.034;2024-01-16T02:52:56;1.00;1.00;0.00
84428;PMS7003;74637;52.170;21.034;2024-01-16T02:55:22;0.00;0.00;0.00
84428;PMS7003;74637;52.170;21.034;2024-01-16T02:57:49;0.00;0.00;0.00
84428;PMS7003;74637;52.170;21.034;2024-01-16T03:00:16;6.00;1.00;1.00
84428;PMS7003;74637;52.170;21.034;2024-01-16T03:02:43;1.00;0.00;0.00
84428;PMS7003;74637;52.170;21.034;2024-01-16T03:05:10;1.00;0.00;0.00
84428;PMS7003;74637;52.170;21.034;2024-01-16T03:07:37;0.00;0.00;0.00
84428;PMS7003;74637;52.170;21.034;2024-01-16T03:10:03;0.00;0.00;0.00
84428;PMS7003;74637;52.170;21.034;2024-01-16T03:12:30;0.00;0.00;0.00
84428;PMS7003;74637;52.170;21.034;2024-01-16T03:14:57;0.00;0.00;0.00
84428;PMS7003;74637;52.170;21.034;2024-01-16T03:17:23;1.50;0.00;0.00
84428;PMS7003;74637;52.170;21.034;2024-01-16T03:19:50;0.00;0.00;0.00
84428;PMS7003;74637;52.170;21.034;2024-01-16T03:22:16;0.50;0.50;0.00
84428;PMS7003;74637;52.170;21.034;2024-01-16T03:24:43;0.00;0.00;0.00
84428;PMS7003;74637;52.170;21.034;2024-01-16T03:27:09;0.50;0.00;0.00
84428;PMS7003;74637;52.170;21.034;2024-01-16T03:29:36;0.00;0.00;0.00
84428;PMS7003;74637;52.170;21.034;2024-01-16T03:32:02;0.00;0.00;0.00
84428;PMS7003;74637;52.170;21.034;2024-01-16T03:34:32;1.00;1.00;0.00
84428;PMS7003;74637;52.170;21.034;2024-01-16T03:36:59;2.00;1.00;0.00
84428;PMS7003;74637;52.170;21.034;2024-01-16T03:39:25;2.00;0.00;0.00
84428;PMS7003;74637;52.170;21.034;2024-01-16T03:41:52;0.00;0.00;0.00
84428;PMS7003;74637;52.170;21.034;2024-01-16T03:44:19;0.00;0.00;0.00
84428;PMS7003;74637;52.170;21.034;2024-01-16T03:46:45;3.00;0.00;0.00
84428;PMS7003;74637;52.170;21.034;2024-01-16T03:49:12;0.00;0.00;0.00
84428;PMS7003;74637;52.170;21.034;2024-01-16T03:51:38;0.00;0.00;0.00
84428;PMS7003;74637;52.170;21.034;2024-01-16T03:54:09;0.00;0.00;0.00
84428;PMS7003;74637;52.170;21.034;2024-01-16T03:56:35;0.00;0.00;0.00
84428;PMS7003;74637;52.170;21.034;2024-01-16T03:59:02;0.00;0.00;0.00
84428;PMS7003;74637;52.170;21.034;2024-01-16T04:01:30;2.50;0.00;0.00
84428;PMS7003;74637;52.170;21.034;2024-01-16T04:03:58;0.00;0.00;0.00
84428;PMS7003;74637;52.170;21.034;2024-01-16T04:06:24;1.00;0.00;0.00
84428;PMS7003;74637;52.170;21.034;2024-01-16T04:08:52;1.00;0.00;0.00
84428;PMS7003;74637;52.170;21.034;2024-01-16T04:11:19;1.33;0.00;0.00
84428;PMS7003;74637;52.170;21.034;2024-01-16T04:13:45;0.00;0.00;0.00
84428;PMS7003;74637;52.170;21.034;2024-01-16T04:16:12;2.50;0.00;0.00
84428;PMS7003;74637;52.170;21.034;2024-01-16T04:18:40;0.00;0.00;0.00
84428;PMS7003;74637;52.170;21.034;2024-01-16T04:21:08;0.00;0.00;0.00
84428;PMS7003;74637;52.170;21.034;2024-01-16T04:23:35;0.00;0.00;0.00
84428;PMS7003;74637;52.170;21.034;2024-01-16T04:26:02;1.00;1.00;0.00
84428;PMS7003;74637;52.170;21.034;2024-01-16T04:28:29;2.00;0.50;0.00
84428;PMS7003;74637;52.170;21.034;2024-01-16T04:30:56;0.50;0.50;0.00
84428;PMS7003;74637;52.170;21.034;2024-01-16T04:33:22;0.00;0.00;0.00
84428;PMS7003;74637;52.170;21.034;2024-01-16T04:35:49;3.00;0.00;0.00
84428;PMS7003;74637;52.170;21.034;2024-01-16T04:38:16;1.00;0.00;0.00
84428;PMS7003;74637;52.170;21.034;2024-01-16T04:40:43;0.00;0.00;0.00
84428;PMS7003;74637;52.170;21.034;2024-01-16T04:43:09;0.00;0.00;0.00
84428;PMS7003;74637;52.170;21.034;2024-01-16T04:45:36;3.00;0.50;0.00
84428;PMS7003;74637;52.170;21.034;2024-01-16T04:48:03;1.00;1.00;1.00
84428;PMS7003;74637;52.170;21.034;2024-01-16T04:50:29;1.00;0.00;0.00
84428;PMS7003;74637;52.170;21.034;2024-01-16T04:52:59;0.00;0.00;0.00
84428;PMS7003;74637;52.170;21.034;2024-01-16T04:55:30;0.00;0.00;0.00
84428;PMS7003;74637;52.170;21.034;2024-01-16T04:57:57;0.00;0.00;0.00
84428;PMS7003;74637;52.170;21.034;2024-01-16T05:00:24;3.00;0.00;0.00
84428;PMS7003;74637;52.170;21.034;2024-01-16T05:02:50;0.50;0.50;0.00
84428;PMS7003;74637;52.170;21.034;2024-01-16T05:05:17;1.00;0.00;0.00
84428;PMS7003;74637;52.170;21.034;2024-01-16T05:07:44;0.00;0.00;0.00
84428;PMS7003;74637;52.170;21.034;2024-01-16T05:10:11;1.00;1.00;0.00
84428;PMS7003;74637;52.170;21.034;2024-01-16T05:12:41;0.00;0.00;0.00
84428;PMS7003;74637;52.170;21.034;2024-01-16T05:15:09;1.00;0.00;0.00
84428;PMS7003;74637;52.170;21.034;2024-01-16T05:17:37;3.00;0.00;0.00
84428;PMS7003;74637;52.170;21.034;2024-01-16T05:20:04;4.00;0.33;0.33
84428;PMS7003;74637;52.170;21.034;2024-01-16T05:22:31;1.00;0.00;0.00
84428;PMS7003;74637;52.170;21.034;2024-01-16T05:24:59;3.00;1.00;0.00
84428;PMS7003;74637;52.170;21.034;2024-01-16T05:27:26;0.00;0.00;0.00
84428;PMS7003;74637;52.170;21.034;2024-01-16T05:29:52;2.00;0.00;0.00
84428;PMS7003;74637;52.170;21.034;2024-01-16T05:32:19;0.00;0.00;0.00
84428;PMS7003;74637;52.170;21.034;2024-01-16T05:34:45;0.33;0.33;0.33
84428;PMS7003;74637;52.170;21.034;2024-01-16T05:37:12;6.00;1.00;1.00
84428;PMS7003;74637;52.170;21.034;2024-01-16T05:39:39;1.00;1.00;0.00
84428;PMS7003;74637;52.170;21.034;2024-01-16T05:42:05;3.50;1.00;0.00
84428;PMS7003;74637;52.170;21.034;2024-01-16T05:44:32;0.00;0.00;0.00
84428;PMS7003;74637;52.170;21.034;2024-01-16T05:46:59;3.50;2.00;1.00
84428;PMS7003;74637;52.170;21.034;2024-01-16T05:49:26;6.00;1.00;1.00
84428;PMS7003;74637;52.170;21.034;2024-01-16T05:51:52;2.00;1.00;0.00
84428;PMS7003;74637;52.170;21.034;2024-01-16T05:54:19;2.00;1.00;0.00
84428;PMS7003;74637;52.170;21.034;2024-01-16T05:56:45;6.00;2.00;1.00
84428;PMS7003;74637;52.170;21.034;2024-01-16T05:59:12;1.00;1.00;1.00
84428;PMS7003;74637;52.170;21.034;2024-01-16T06:01:38;1.00;1.00;1.00
84428;PMS7003;74637;52.170;21.034;2024-01-16T06:04:05;0.00;0.00;0.00
84428;PMS7003;74637;52.170;21.034;2024-01-16T06:06:31;3.00;1.00;1.00
84428;PMS7003;74637;52.170;21.034;2024-01-16T06:08:59;1.00;1.00;0.00
84428;PMS7003;74637;52.170;21.034;2024-01-16T06:11:32;0.00;0.00;0.00
84428;PMS7003;74637;52.170;21.034;2024-01-16T06:13:59;0.00;0.00;0.00
84428;PMS7003;74637;52.170;21.034;2024-01-16T06:16:26;1.00;1.00;0.00
84428;PMS7003;74637;52.170;21.034;2024-01-16T06:18:52;4.00;1.00;1.00
84428;PMS7003;74637;52.170;21.034;2024-01-16T06:21:19;1.00;1.00;1.00
84428;PMS7003;74637;52.170;21.034;2024-01-16T06:23:46;1.00;1.00;1.00
84428;PMS7003;74637;52.170;21.034;2024-01-16T06:26:12;3.50;1.00;0.50
84428;PMS7003;74637;52.170;21.034;2024-01-16T06:28:39;6.00;3.00;1.00
84428;PMS7003;74637;52.170;21.034;2024-01-16T06:31:09;3.00;1.00;0.50
84428;PMS7003;74637;52.170;21.034;2024-01-16T06:33:36;6.00;1.00;0.00
84428;PMS7003;74637;52.170;21.034;2024-01-16T06:36:02;7.33;1.00;1.00
84428;PMS7003;74637;52.170;21.034;2024-01-16T06:38:30;4.00;1.00;1.00
84428;PMS7003;74637;52.170;21.034;2024-01-16T06:40:57;0.00;0.00;0.00
84428;PMS7003;74637;52.170;21.034;2024-01-16T06:43:24;1.00;1.00;0.50
84428;PMS7003;74637;52.170;21.034;2024-01-16T06:45:50;4.67;1.00;1.00
84428;PMS7003;74637;52.170;21.034;2024-01-16T06:48:17;4.00;1.00;0.50
84428;PMS7003;74637;52.170;21.034;2024-01-16T06:50:43;6.00;1.00;1.00
84428;PMS7003;74637;52.170;21.034;2024-01-16T06:53:10;1.00;1.00;0.00
84428;PMS7003;74637;52.170;21.034;2024-01-16T06:55:37;1.00;1.00;1.00
84428;PMS7003;74637;52.170;21.034;2024-01-16T06:58:03;6.00;1.00;1.00
84428;PMS7003;74637;52.170;21.034;2024-01-16T07:00:30;1.00;1.00;0.00
84428;PMS7003;74637;52.170;21.034;2024-01-16T07:02:56;1.00;1.00;1.00
84428;PMS7003;74637;52.170;21.034;2024-01-16T07:05:24;4.00;1.00;1.00
84428;PMS7003;74637;52.170;21.034;2024-01-16T07:07:50;1.00;1.00;1.00
84428;PMS7003;74637;52.170;21.034;2024-01-16T07:10:17;3.00;1.00;0.00
84428;PMS7003;74637;52.170;21.034;2024-01-16T07:12:48;1.00;1.00;0.00
84428;PMS7003;74637;52.170;21.034;2024-01-16T07:15:15;3.00;3.00;1.00
84428;PMS7003;74637;52.170;21.034;2024-01-16T07:17:42;6.50;2.00;0.50
84428;PMS7003;74637;52.170;21.034;2024-01-16T07:20:09;0.00;0.00;0.00
84428;PMS7003;74637;52.170;21.034;2024-01-16T07:22:36;1.00;1.00;1.00
84428;PMS7003;74637;52.170;21.034;2024-01-16T07:25:06;4.00;1.00;1.00
84428;PMS7003;74637;52.170;21.034;2024-01-16T07:27:33;0.67;0.67;0.00
84428;PMS7003;74637;52.170;21.034;2024-01-16T07:30:01;7.00;1.00;0.00
84428;PMS7003;74637;52.170;21.034;2024-01-16T07:32:28;7.00;1.00;1.00
84428;PMS7003;74637;52.170;21.034;2024-01-16T07:34:54;0.00;0.00;0.00
84428;PMS7003;74637;52.170;21.034;2024-01-16T07:37:21;3.00;3.00;0.50
84428;PMS7003;74637;52.170;21.034;2024-01-16T07:39:47;4.00;1.00;1.00
84428;PMS7003;74637;52.170;21.034;2024-01-16T07:42:14;1.00;1.00;1.00
84428;PMS7003;74637;52.170;21.034;2024-01-16T07:44:41;1.00;0.00;0.00
84428;PMS7003;74637;52.170;21.034;2024-01-16T07:47:07;0.00;0.00;0.00
84428;PMS7003;74637;52.170;21.034;2024-01-16T07:49:34;0.00;0.00;0.00
84428;PMS7003;74637;52.170;21.034;2024-01-16T07:52:01;0.00;0.00;0.00
84428;PMS7003;74637;52.170;21.034;2024-01-16T07:54:27;0.50;0.50;0.00
84428;PMS7003;74637;52.170;21.034;2024-01-16T07:56:55;0.00;0.00;0.00
84428;PMS7003;74637;52.170;21.034;2024-01-16T07:59:21;0.00;0.00;0.00
84428;PMS7003;74637;52.170;21.034;2024-01-16T08:01:49;1.00;1.00;1.00
84428;PMS7003;74637;52.170;21.034;2024-01-16T08:04:15;1.00;1.00;0.00
84428;PMS7003;74637;52.170;21.034;2024-01-16T08:06:42;0.67;0.00;0.00
84428;PMS7003;74637;52.170;21.034;2024-01-16T08:09:09;0.00;0.00;0.00
84428;PMS7003;74637;52.170;21.034;2024-01-16T08:11:38;2.00;0.00;0.00
84428;PMS7003;74637;52.170;21.034;2024-01-16T08:14:05;1.00;0.00;0.00
84428;PMS7003;74637;52.170;21.034;2024-01-16T08:16:32;0.00;0.00;0.00
84428;PMS7003;74637;52.170;21.034;2024-01-16T08:18:59;0.00;0.00;0.00
84428;PMS7003;74637;52.170;21.034;2024-01-16T08:21:25;0.00;0.00;0.00
84428;PMS7003;74637;52.170;21.034;2024-01-16T08:23:52;0.00;0.00;0.00
84428;PMS7003;74637;52.170;21.034;2024-01-16T08:26:19;0.00;0.00;0.00
84428;PMS7003;74637;52.170;21.034;2024-01-16T08:28:45;1.00;0.00;0.00
84428;PMS7003;74637;52.170;21.034;2024-01-16T08:31:12;0.00;0.00;0.00
84428;PMS7003;74637;52.170;21.034;2024-01-16T08:33:39;0.00;0.00;0.00
84428;PMS7003;74637;52.170;21.034;2024-01-16T08:36:05;0.00;0.00;0.00
84428;PMS7003;74637;52.170;21.034;2024-01-16T08:38:32;0.00;0.00;0.00
84428;PMS7003;74637;52.170;21.034;2024-01-16T08:40:58;1.00;0.00;0.00
84428;PMS7003;74637;52.170;21.034;2024-01-16T08:43:25;0.00;0.00;0.00
84428;PMS7003;74637;52.170;21.034;2024-01-16T08:45:51;0.50;0.00;0.00
84428;PMS7003;74637;52.170;21.034;2024-01-16T08:48:18;0.00;0.00;0.00
84428;PMS7003;74637;52.170;21.034;2024-01-16T08:50:45;1.00;0.00;0.00
84428;PMS7003;74637;52.170;21.034;2024-01-16T08:53:11;0.00;0.00;0.00
84428;PMS7003;74637;52.170;21.034;2024-01-16T08:55:38;0.33;0.33;0.00
84428;PMS7003;74637;52.170;21.034;2024-01-16T08:58:04;3.00;0.00;0.00
84428;PMS7003;74637;52.170;21.034;2024-01-16T09:00:31;0.00;0.00;0.00
84428;PMS7003;74637;52.170;21.034;2024-01-16T09:02:59;4.00;1.00;0.00
84428;PMS7003;74637;52.170;21.034;2024-01-16T09:05:26;0.00;0.00;0.00
84428;PMS7003;74637;52.170;21.034;2024-01-16T09:07:53;4.00;0.00;0.00
84428;PMS7003;74637;52.170;21.034;2024-01-16T09:10:19;0.00;0.00;0.00
84428;PMS7003;74637;52.170;21.034;2024-01-16T09:12:46;4.00;0.00;0.00
84428;PMS7003;74637;52.170;21.034;2024-01-16T09:15:13;0.00;0.00;0.00
84428;PMS7003;74637;52.170;21.034;2024-01-16T09:17:40;0.00;0.00;0.00
84428;PMS7003;74637;52.170;21.034;2024-01-16T09:20:07;1.00;0.00;0.00
84428;PMS7003;74637;52.170;21.034;2024-01-16T09:22:34;3.00;0.00;0.00
84428;PMS7003;74637;52.170;21.034;2024-01-16T09:25:01;1.00;1.00;0.00
84428;PMS7003;74637;52.170;21.034;2024-01-16T09:27:27;1.00;1.00;1.00
84428;PMS7003;74637;52.170;21.034;2024-01-16T09:29:54;1.00;0.00;0.00
84428;PMS7003;74637;52.170;21.034;2024-01-16T09:32:20;1.00;1.00;0.50
84428;PMS7003;74637;52.170;21.034;2024-01-16T09:34:47;1.00;0.00;0.00
84428;PMS7003;74637;52.170;21.034;2024-01-16T09:37:14;0.00;0.00;0.00
84428;PMS7003;74637;52.170;21.034;2024-01-16T09:39:41;0.00;0.00;0.00
84428;PMS7003;74637;52.170;21.034;2024-01-16T09:42:09;0.00;0.00;0.00
84428;PMS7003;74637;52.170;21.034;2024-01-16T09:44:36;1.00;1.00;1.00
84428;PMS7003;74637;52.170;21.034;2024-01-16T09:47:03;1.00;1.00;0.00
84428;PMS7003;74637;52.170;21.034;2024-01-16T09:49:31;3.00;0.00;0.00
84428;PMS7003;74637;52.170;21.034;2024-01-16T09:51:57;0.00;0.00;0.00
84428;PMS7003;74637;52.170;21.034;2024-01-16T09:54:28;0.00;0.00;0.00
84428;PMS7003;74637;52.170;21.034;2024-01-16T09:56:56;0.00;0.00;0.00
84428;PMS7003;74637;52.170;21.034;2024-01-16T09:59:25;0.00;0.00;0.00
84428;PMS7003;74637;52.170;21.034;2024-01-16T10:01:55;0.50;0.50;0.50
84428;PMS7003;74637;52.170;21.034;2024-01-16T10:04:22;1.00;0.00;0.00
84428;PMS7003;74637;52.170;21.034;2024-01-16T10:06:48;0.00;0.00;0.00
84428;PMS7003;74637;52.170;21.034;2024-01-16T10:09:17;1.00;1.00;1.00
84428;PMS7003;74637;52.170;21.034;2024-01-16T10:11:44;0.33;0.00;0.00
84428;PMS7003;74637;52.170;21.034;2024-01-16T10:14:12;1.00;1.00;0.00
84428;PMS7003;74637;52.170;21.034;2024-01-16T10:16:57;4.00;0.00;0.00
84428;PMS7003;74637;52.170;21.034;2024-01-16T10:19:31;0.50;0.50;0.00
84428;PMS7003;74637;52.170;21.034;2024-01-16T10:22:02;3.00;0.00;0.00
84428;PMS7003;74637;52.170;21.034;2024-01-16T10:24:30;1.00;1.00;0.50
84428;PMS7003;74637;52.170;21.034;2024-01-16T10:26:58;0.00;0.00;0.00
84428;PMS7003;74637;52.170;21.034;2024-01-16T10:29:26;2.33;0.00;0.00
84428;PMS7003;74637;52.170;21.034;2024-01-16T10:31:53;0.00;0.00;0.00
84428;PMS7003;74637;52.170;21.034;2024-01-16T10:34:20;1.00;1.00;0.00
84428;PMS7003;74637;52.170;21.034;2024-01-16T10:36:51;4.00;1.00;1.00
84428;PMS7003;74637;52.170;21.034;2024-01-16T10:39:24;1.67;1.00;1.00
84428;PMS7003;74637;52.170;21.034;2024-01-16T10:41:54;1.00;0.33;0.00
84428;PMS7003;74637;52.170;21.034;2024-01-16T10:44:22;3.33;1.67;1.00
84428;PMS7003;74637;52.170;21.034;2024-01-16T10:46:49;9.00;3.00;1.00
84428;PMS7003;74637;52.170;21.034;2024-01-16T10:49:16;3.00;3.00;3.00
84428;PMS7003;74637;52.170;21.034;2024-01-16T10:51:43;4.00;2.50;1.00
84428;PMS7003;74637;52.170;21.034;2024-01-16T10:54:13;5.50;3.50;3.00
84428;PMS7003;74637;52.170;21.034;2024-01-16T10:56:44;4.00;3.00;1.00
84428;PMS7003;74637;52.170;21.034;2024-01-16T10:59:16;3.00;3.00;1.00
84428;PMS7003;74637;52.170;21.034;2024-01-16T11:01:48;7.00;4.00;1.67
84428;PMS7003;74637;52.170;21.034;2024-01-16T11:04:18;3.00;3.00;1.00
84428;PMS7003;74637;52.170;21.034;2024-01-16T11:06:47;3.00;1.00;1.00
84428;PMS7003;74637;52.170;21.034;2024-01-16T11:09:17;4.00;4.00;3.33
84428;PMS7003;74637;52.170;21.034;2024-01-16T11:11:44;7.67;3.67;2.33
84428;PMS7003;74637;52.170;21.034;2024-01-16T11:14:12;5.00;4.00;3.00
84428;PMS7003;74637;52.170;21.034;2024-01-16T11:16:39;4.00;4.00;3.00
84428;PMS7003;74637;52.170;21.034;2024-01-16T11:19:10;3.00;3.00;3.00
84428;PMS7003;74637;52.170;21.034;2024-01-16T11:21:37;11.00;4.00;3.00
84428;PMS7003;74637;52.170;21.034;2024-01-16T11:24:05;7.00;3.00;3.00
84428;PMS7003;74637;52.170;21.034;2024-01-16T11:26:35;5.00;5.00;3.00
84428;PMS7003;74637;52.170;21.034;2024-01-16T11:31:55;7.00;6.00;3.00
84428;PMS7003;74637;52.170;21.034;2024-01-16T11:37:08;0.00;0.00;0.00
84428;PMS7003;74637;52.170;21.034;2024-01-16T11:39:38;4.00;4.00;3.00
84428;PMS7003;74637;52.170;21.034;2024-01-16T11:42:06;4.00;1.67;1.00
84428;PMS7003;74637;52.170;21.034;2024-01-16T11:44:39;3.00;3.00;3.00
84428;PMS7003;74637;52.170;21.034;2024-01-16T11:52:54;5.00;4.00;2.00
84428;PMS7003;74637;52.170;21.034;2024-01-16T11:55:30;4.00;3.00;1.00
84428;PMS7003;74637;52.170;21.034;2024-01-16T12:00:37;6.50;2.00;2.00
84428;PMS7003;74637;52.170;21.034;2024-01-16T12:03:08;6.67;3.33;3.00
84428;PMS7003;74637;52.170;21.034;2024-01-16T12:05:36;2.50;2.50;1.00
84428;PMS7003;74637;52.170;21.034;2024-01-16T12:08:03;6.50;4.00;3.00
84428;PMS7003;74637;52.170;21.034;2024-01-16T12:10:30;3.00;2.67;1.67
84428;PMS7003;74637;52.170;21.034;2024-01-16T12:12:58;7.00;4.00;3.00
84428;PMS7003;74637;52.170;21.034;2024-01-16T12:15:26;7.00;3.00;1.00
84428;PMS7003;74637;52.170;21.034;2024-01-16T12:17:53;6.00;2.50;0.50
84428;PMS7003;74637;52.170;21.034;2024-01-16T12:20:21;6.50;3.00;3.00
84428;PMS7003;74637;52.170;21.034;2024-01-16T12:22:58;4.00;4.00;2.00
84428;PMS7003;74637;52.170;21.034;2024-01-16T12:25:38;7.00;3.00;2.00
84428;PMS7003;74637;52.170;21.034;2024-01-16T12:28:05;5.00;1.00;1.00
84428;PMS7003;74637;52.170;21.034;2024-01-16T12:30:33;1.00;1.00;1.00
84428;PMS7003;74637;52.170;21.034;2024-01-16T12:35:37;5.00;2.00;2.00
84428;PMS7003;74637;52.170;21.034;2024-01-16T12:38:06;2.00;2.00;2.00
84428;PMS7003;74637;52.170;21.034;2024-01-16T12:40:39;3.00;3.00;1.00
84428;PMS7003;74637;52.170;21.034;2024-01-16T12:43:10;8.00;4.00;2.00
84428;PMS7003;74637;52.170;21.034;2024-01-16T12:45:37;4.00;1.00;1.00
84428;PMS7003;74637;52.170;21.034;2024-01-16T12:48:04;5.00;4.00;2.00
84428;PMS7003;74637;52.170;21.034;2024-01-16T12:50:32;2.00;2.00;1.00
84428;PMS7003;74637;52.170;21.034;2024-01-16T12:53:03;4.25;1.75;1.50
84428;PMS7003;74637;52.170;21.034;2024-01-16T12:55:34;5.00;3.00;1.00
84428;PMS7003;74637;52.170;21.034;2024-01-16T12:58:15;5.67;4.00;2.33
84428;PMS7003;74637;52.170;21.034;2024-01-16T13:00:46;3.25;2.00;2.25
84428;PMS7003;74637;52.170;21.034;2024-01-16T13:03:35;0.00;0.00;0.00
84428;PMS7003;74637;52.170;21.034;2024-01-16T13:06:01;3.00;1.00;0.00
84428;PMS7003;74637;52.170;21.034;2024-01-16T13:08:28;1.50;1.50;1.00
84428;PMS7003;74637;52.170;21.034;2024-01-16T13:11:01;5.00;4.00;2.00
84428;PMS7003;74637;52.170;21.034;2024-01-16T13:13:29;7.50;4.50;2.00
84428;PMS7003;74637;52.170;21.034;2024-01-16T13:15:57;9.33;5.00;2.00
84428;PMS7003;74637;52.170;21.034;2024-01-16T13:18:25;5.00;2.00;2.00
84428;PMS7003;74637;52.170;21.034;2024-01-16T13:20:53;4.00;4.00;2.00
84428;PMS7003;74637;52.170;21.034;2024-01-16T13:23:22;3.00;1.67;1.67
84428;PMS7003;74637;52.170;21.034;2024-01-16T13:25:51;4.00;2.00;1.00
84428;PMS7003;74637;52.170;21.034;2024-01-16T13:28:19;4.00;2.00;1.00
84428;PMS7003;74637;52.170;21.034;2024-01-16T13:30:47;4.33;2.00;2.00
84428;PMS7003;74637;52.170;21.034;2024-01-16T13:33:15;4.00;2.00;1.50
84428;PMS7003;74637;52.170;21.034;2024-01-16T13:35:44;6.00;4.00;2.00
84428;PMS7003;74637;52.170;21.034;2024-01-16T13:38:13;5.00;3.00;2.00
84428;PMS7003;74637;52.170;21.034;2024-01-16T13:40:42;7.00;3.00;2.00
84428;PMS7003;74637;52.170;21.034;2024-01-16T13:43:09;3.00;3.00;2.00
84428;PMS7003;74637;52.170;21.034;2024-01-16T13:45:35;3.00;1.00;1.00
84428;PMS7003;74637;52.170;21.034;2024-01-16T13:48:02;2.00;2.00;2.00
84428;PMS7003;74637;52.170;21.034;2024-01-16T13:50:30;7.00;3.00;2.00
84428;PMS7003;74637;52.170;21.034;2024-01-16T13:52:58;7.00;4.33;2.67
84428;PMS7003;74637;52.170;21.034;2024-01-16T13:55:25;5.00;2.00;2.00
84428;PMS7003;74637;52.170;21.034;2024-01-16T13:57:52;1.00;1.00;1.00
84428;PMS7003;74637;52.170;21.034;2024-01-16T14:00:19;6.00;3.00;2.50
84428;PMS7003;74637;52.170;21.034;2024-01-16T14:02:46;5.67;2.00;2.00
84428;PMS7003;74637;52.170;21.034;2024-01-16T14:05:15;6.00;3.00;2.00
84428;PMS7003;74637;52.170;21.034;2024-01-16T14:07:44;5.00;2.00;1.67
84428;PMS7003;74637;52.170;21.034;2024-01-16T14:10:17;2.00;2.00;2.00
84428;PMS7003;74637;52.170;21.034;2024-01-16T14:12:46;2.00;2.00;2.00
84428;PMS7003;74637;52.170;21.034;2024-01-16T14:15:14;3.00;3.00;2.00
84428;PMS7003;74637;52.170;21.034;2024-01-16T14:17:52;8.00;2.00;1.00
84428;PMS7003;74637;52.170;21.034;2024-01-16T14:20:21;4.33;2.00;2.00
84428;PMS7003;74637;52.170;21.034;2024-01-16T14:22:50;4.00;2.00;2.00
84428;PMS7003;74637;52.170;21.034;2024-01-16T14:25:18;1.00;1.00;1.00
84428;PMS7003;74637;52.170;21.034;2024-01-16T14:27:48;2.00;2.00;1.00
84428;PMS7003;74637;52.170;21.034;2024-01-16T14:30:22;2.00;1.00;1.00